Warning: Javascript must be enabled to use all the features on this page!


Page Loading - Please Wait...

Click to hideNews Bulletins

Peak Streamflow for the Nation

USGS 06349500 APPLE CREEK NR MENOKEN, ND

Burleigh County, North Dakota
Hydrologic Unit Code 10130103
Latitude  46°47'40", Longitude 100°39'25" NAD27
Drainage area 1,680  square miles
Contributing drainage area 1,180  square miles
Gage datum 1,639.92 feet above NAVD88
Output formats
Table
Graph
Tab-separated file
peakfq (watstore) format
Reselect output format
Water
Year
Date Gage
Height
(feet)
Stream-
flow
(cfs)
1946 1946-03-13   2001
1947 1947-03-26 13.201 800
1948 1948-04-07 15.80 2,340
1949 1949-04-05 12.401 750
1950 1950-04-18 17.07 6,750
1951 1951-04-07 16.40 3,200
1952 1952-04-05 16.101 1,540
1953 1953-06-16 14.70 1,160
1954 1954-06-08 6.88 275
1955 1955-03-14 7.30 225
1956 1956-04-08 10.82 665
1957 1957-03-25 7.251 260
1958 1958-03-28 10.561 460
1959 1959-03-24 7.261 170
1960 1960-03-29 14.211 960
1961 1960-11-09 2.16 13.0
1962 1962-03-29 10.961 540
1963 1963-06-06 11.04 632
1964 1964-06-22 4.352 78.0
1965 1965-04-13 8.392 380
1966 1966-03-17 15.861 2,100
1967 1967-03-27 13.211 810
1968 1968-03-07 8.501 248
1969 1969-04-10 16.681 4,040
1970 1970-05-01 8.82 385
1971 1971-04-02 10.691 540
1972 1972-03-17 15.311 1,400
1973 1973-03-07 4.721,2 79.0
1974 1974-05-23 4.972 124
1975 1975-04-20 12.00 750
1976 1976-03-21 12.701 750
1977 1977-09-30 4.81 19.0
1978 1978-03-28 15.562 1,760
1979 1979-04-19 17.46 5,980
1980 1980-03-23 6.15 118
1981 1981-02-22 6.91 196
1982 1982-04-14 15.60 1,690
1983 1983-03-08 14.751 950
1984 1984-03-27 12.28 654
1985 1985-03-14 10.79 425
1986 1986-03-05 14.981 1,500
1987 1987-03-23 16.80 3,400
1988 1988-03-29 6.78 130
1989 1989-03-31 6.38 97.0
1990 1990-03-11 4.38 6.90
1991 1991-05-15   7.80
1992 1992-03-01 11.981 490
1993 1993-07-16 16.05 1,290
1994 1994-03-23 10.37 519
1995 1995-03-16 16.251 1,670
1996 1996-04-11 15.241,2 1,3502
1997 1997-04-16 16.402 2,640
1998 1998-03-28 12.161 6252
1999 1999-03-22 16.191 1,9002
2000 2000-02-27 16.64 3,500
2001 2001-03-22 14.961 1,3002
2002 2002-04-06 5.522 72.0
2003 2003-03-23 6.802 2002
2004 2004-03-29 6.64 207
2005 2005-07-02 6.38 183
2006 2006-03-15 5.18 35.0
2007 2007-06-09 9.93 514
2008 2008-06-16 5.23 40.0
2009 2009-04-13 17.22 5,940
2010 2010-03-23 14.672 940
2011 2011-04-09 16.43 2,790
2012 2012-03-16 6.692 190
2013 2013-04-06 10.12 553
2014 2014-03-16 14.131 900
2015 2015-05-20 9.792 519
2016 2016-04-28 6.34 147
2017 2017-03-31 13.20 926
2018 2018-04-21 10.67 612
2019 2019-03-30 16.37 2,490
2020 2020-03-12 12.54 842
2021 2021-03-14 5.30 24.2
?
  Peak Gage-Height Qualification Codes.
?
  Peak Streamflow Qualification Codes.